sensor_id;sensor_type;location;lat;lon;timestamp;temperature;humidity
71088;SHT31;58747;50.674;4.616;2023-01-10T00:00:12;4.42;89.46
71088;SHT31;58747;50.674;4.616;2023-01-10T00:02:38;4.45;89.02
71088;SHT31;58747;50.674;4.616;2023-01-10T00:05:03;4.53;88.86
71088;SHT31;58747;50.674;4.616;2023-01-10T00:07:29;4.52;89.23
71088;SHT31;58747;50.674;4.616;2023-01-10T00:09:54;4.58;88.87
71088;SHT31;58747;50.674;4.616;2023-01-10T00:12:20;4.61;88.92
71088;SHT31;58747;50.674;4.616;2023-01-10T00:15:04;4.68;88.04
71088;SHT31;58747;50.674;4.616;2023-01-10T00:17:29;4.77;87.63
71088;SHT31;58747;50.674;4.616;2023-01-10T00:19:55;4.80;87.43
71088;SHT31;58747;50.674;4.616;2023-01-10T00:22:20;4.83;86.99
71088;SHT31;58747;50.674;4.616;2023-01-10T00:24:49;4.80;87.87
71088;SHT31;58747;50.674;4.616;2023-01-10T00:27:14;4.87;87.02
71088;SHT31;58747;50.674;4.616;2023-01-10T00:29:45;4.89;86.80
71088;SHT31;58747;50.674;4.616;2023-01-10T00:32:11;4.87;87.41
71088;SHT31;58747;50.674;4.616;2023-01-10T00:34:36;4.89;87.09
71088;SHT31;58747;50.674;4.616;2023-01-10T00:37:01;4.92;87.18
71088;SHT31;58747;50.674;4.616;2023-01-10T00:39:27;4.89;87.52
71088;SHT31;58747;50.674;4.616;2023-01-10T00:41:52;4.90;86.47
71088;SHT31;58747;50.674;4.616;2023-01-10T00:44:36;4.89;87.40
71088;SHT31;58747;50.674;4.616;2023-01-10T00:47:01;4.83;87.09
71088;SHT31;58747;50.674;4.616;2023-01-10T00:49:26;4.84;86.86
71088;SHT31;58747;50.674;4.616;2023-01-10T00:51:52;4.76;86.84
71088;SHT31;58747;50.674;4.616;2023-01-10T00:54:22;4.62;87.71
71088;SHT31;58747;50.674;4.616;2023-01-10T00:56:47;4.56;87.73
71088;SHT31;58747;50.674;4.616;2023-01-10T00:59:12;4.45;88.13
71088;SHT31;58747;50.674;4.616;2023-01-10T01:01:38;4.42;88.04
71088;SHT31;58747;50.674;4.616;2023-01-10T01:04:03;4.41;88.19
71088;SHT31;58747;50.674;4.616;2023-01-10T01:06:28;4.40;87.78
71088;SHT31;58747;50.674;4.616;2023-01-10T01:08:54;4.46;88.11
71088;SHT31;58747;50.674;4.616;2023-01-10T01:11:19;4.53;87.67
71088;SHT31;58747;50.674;4.616;2023-01-10T01:13:44;4.55;87.58
71088;SHT31;58747;50.674;4.616;2023-01-10T01:16:10;4.61;87.48
71088;SHT31;58747;50.674;4.616;2023-01-10T01:18:35;4.62;87.29
71088;SHT31;58747;50.674;4.616;2023-01-10T01:21:01;4.65;87.11
71088;SHT31;58747;50.674;4.616;2023-01-10T01:23:28;4.75;87.04
71088;SHT31;58747;50.674;4.616;2023-01-10T01:25:55;4.80;86.60
71088;SHT31;58747;50.674;4.616;2023-01-10T01:28:20;4.77;86.74
71088;SHT31;58747;50.674;4.616;2023-01-10T01:30:46;4.82;87.13
71088;SHT31;58747;50.674;4.616;2023-01-10T01:33:12;4.79;87.48
71088;SHT31;58747;50.674;4.616;2023-01-10T01:35:44;4.71;88.01
71088;SHT31;58747;50.674;4.616;2023-01-10T01:38:10;4.75;87.52
71088;SHT31;58747;50.674;4.616;2023-01-10T01:40:35;4.73;87.76
71088;SHT31;58747;50.674;4.616;2023-01-10T01:43:03;4.72;87.77
71088;SHT31;58747;50.674;4.616;2023-01-10T01:53:28;4.40;88.51
71088;SHT31;58747;50.674;4.616;2023-01-10T01:55:59;4.31;88.94
71088;SHT31;58747;50.674;4.616;2023-01-10T01:58:36;4.25;88.71
71088;SHT31;58747;50.674;4.616;2023-01-10T02:01:03;4.20;88.79
71088;SHT31;58747;50.674;4.616;2023-01-10T02:03:29;4.17;89.07
71088;SHT31;58747;50.674;4.616;2023-01-10T02:05:54;4.25;88.39
71088;SHT31;58747;50.674;4.616;2023-01-10T02:08:20;4.24;88.39
71088;SHT31;58747;50.674;4.616;2023-01-10T02:11:08;4.18;88.50
71088;SHT31;58747;50.674;4.616;2023-01-10T02:13:37;4.13;89.05
71088;SHT31;58747;50.674;4.616;2023-01-10T02:16:04;4.14;89.08
71088;SHT31;58747;50.674;4.616;2023-01-10T02:18:29;4.14;88.90
71088;SHT31;58747;50.674;4.616;2023-01-10T02:23:45;4.15;89.10
71088;SHT31;58747;50.674;4.616;2023-01-10T02:32:37;4.00;88.92
71088;SHT31;58747;50.674;4.616;2023-01-10T02:35:26;3.98;88.80
71088;SHT31;58747;50.674;4.616;2023-01-10T02:40:42;3.87;89.11
71088;SHT31;58747;50.674;4.616;2023-01-10T02:43:15;3.89;88.76
71088;SHT31;58747;50.674;4.616;2023-01-10T02:48:10;3.79;89.07
71088;SHT31;58747;50.674;4.616;2023-01-10T02:53:16;3.74;89.07
71088;SHT31;58747;50.674;4.616;2023-01-10T02:56:08;3.70;89.34
71088;SHT31;58747;50.674;4.616;2023-01-10T03:01:58;3.63;89.38
71088;SHT31;58747;50.674;4.616;2023-01-10T03:09:55;3.62;89.13
71088;SHT31;58747;50.674;4.616;2023-01-10T03:12:34;3.60;89.38
71088;SHT31;58747;50.674;4.616;2023-01-10T03:15:03;3.62;89.32
71088;SHT31;58747;50.674;4.616;2023-01-10T03:17:30;3.62;89.34
71088;SHT31;58747;50.674;4.616;2023-01-10T03:19:59;3.62;89.19
71088;SHT31;58747;50.674;4.616;2023-01-10T03:22:28;3.55;89.45
71088;SHT31;58747;50.674;4.616;2023-01-10T03:24:58;3.55;89.45
71088;SHT31;58747;50.674;4.616;2023-01-10T03:32:29;3.45;89.85
71088;SHT31;58747;50.674;4.616;2023-01-10T03:34:57;3.56;89.21
71088;SHT31;58747;50.674;4.616;2023-01-10T03:37:35;3.60;89.10
71088;SHT31;58747;50.674;4.616;2023-01-10T03:40:10;3.62;88.86
71088;SHT31;58747;50.674;4.616;2023-01-10T03:45:33;3.58;89.10
71088;SHT31;58747;50.674;4.616;2023-01-10T03:48:04;3.53;88.97
71088;SHT31;58747;50.674;4.616;2023-01-10T03:50:31;3.53;89.12
71088;SHT31;58747;50.674;4.616;2023-01-10T03:52:58;3.52;89.14
71088;SHT31;58747;50.674;4.616;2023-01-10T03:55:26;3.48;89.19
71088;SHT31;58747;50.674;4.616;2023-01-10T03:57:52;3.43;89.28
71088;SHT31;58747;50.674;4.616;2023-01-10T04:00:18;3.52;88.99
71088;SHT31;58747;50.674;4.616;2023-01-10T04:02:44;3.48;89.18
71088;SHT31;58747;50.674;4.616;2023-01-10T04:05:09;3.46;89.34
71088;SHT31;58747;50.674;4.616;2023-01-10T04:07:35;3.43;89.28
71088;SHT31;58747;50.674;4.616;2023-01-10T04:10:02;3.38;89.34
71088;SHT31;58747;50.674;4.616;2023-01-10T04:12:27;3.34;89.79
71088;SHT31;58747;50.674;4.616;2023-01-10T04:14:52;3.43;89.45
71088;SHT31;58747;50.674;4.616;2023-01-10T04:17:18;3.43;89.41
71088;SHT31;58747;50.674;4.616;2023-01-10T04:19:43;3.42;89.52
71088;SHT31;58747;50.674;4.616;2023-01-10T04:22:10;3.42;89.59
71088;SHT31;58747;50.674;4.616;2023-01-10T04:24:35;3.55;89.35
71088;SHT31;58747;50.674;4.616;2023-01-10T04:27:01;3.53;90.00
71088;SHT31;58747;50.674;4.616;2023-01-10T04:29:26;3.60;89.52
71088;SHT31;58747;50.674;4.616;2023-01-10T04:31:52;3.62;89.21
71088;SHT31;58747;50.674;4.616;2023-01-10T04:34:17;3.76;88.87
71088;SHT31;58747;50.674;4.616;2023-01-10T04:36:44;3.74;88.86
71088;SHT31;58747;50.674;4.616;2023-01-10T04:39:10;3.86;88.63
71088;SHT31;58747;50.674;4.616;2023-01-10T04:41:36;3.90;88.08
71088;SHT31;58747;50.674;4.616;2023-01-10T04:44:01;3.97;88.30
71088;SHT31;58747;50.674;4.616;2023-01-10T04:46:26;3.94;88.17
71088;SHT31;58747;50.674;4.616;2023-01-10T04:48:52;3.94;88.05
71088;SHT31;58747;50.674;4.616;2023-01-10T04:51:17;3.86;88.27
71088;SHT31;58747;50.674;4.616;2023-01-10T04:53:42;3.90;88.00
71088;SHT31;58747;50.674;4.616;2023-01-10T04:56:09;3.83;88.19
71088;SHT31;58747;50.674;4.616;2023-01-10T04:58:39;3.76;88.57
71088;SHT31;58747;50.674;4.616;2023-01-10T05:01:09;3.73;88.58
71088;SHT31;58747;50.674;4.616;2023-01-10T05:03:35;3.73;88.36
71088;SHT31;58747;50.674;4.616;2023-01-10T05:06:00;3.73;88.30
71088;SHT31;58747;50.674;4.616;2023-01-10T05:08:25;3.72;88.49
71088;SHT31;58747;50.674;4.616;2023-01-10T05:10:51;3.66;88.78
71088;SHT31;58747;50.674;4.616;2023-01-10T05:13:16;3.67;88.63
71088;SHT31;58747;50.674;4.616;2023-01-10T05:15:41;3.66;88.39
71088;SHT31;58747;50.674;4.616;2023-01-10T05:18:07;3.67;88.47
71088;SHT31;58747;50.674;4.616;2023-01-10T05:20:32;3.65;88.47
71088;SHT31;58747;50.674;4.616;2023-01-10T05:22:57;3.67;88.21
71088;SHT31;58747;50.674;4.616;2023-01-10T05:25:23;3.69;88.26
71088;SHT31;58747;50.674;4.616;2023-01-10T05:27:48;3.65;88.27
71088;SHT31;58747;50.674;4.616;2023-01-10T05:30:14;3.65;88.23
71088;SHT31;58747;50.674;4.616;2023-01-10T05:32:39;3.65;88.32
71088;SHT31;58747;50.674;4.616;2023-01-10T05:35:05;3.63;88.20
71088;SHT31;58747;50.674;4.616;2023-01-10T05:37:30;3.59;88.61
71088;SHT31;58747;50.674;4.616;2023-01-10T05:39:56;3.55;88.46
71088;SHT31;58747;50.674;4.616;2023-01-10T05:42:21;3.59;88.21
71088;SHT31;58747;50.674;4.616;2023-01-10T05:44:46;3.53;88.44
71088;SHT31;58747;50.674;4.616;2023-01-10T05:47:12;3.49;88.95
71088;SHT31;58747;50.674;4.616;2023-01-10T05:49:37;3.48;88.82
71088;SHT31;58747;50.674;4.616;2023-01-10T05:52:03;3.46;88.88
71088;SHT31;58747;50.674;4.616;2023-01-10T05:54:28;3.43;88.86
71088;SHT31;58747;50.674;4.616;2023-01-10T05:56:54;3.45;88.69
71088;SHT31;58747;50.674;4.616;2023-01-10T05:59:19;3.43;88.97
71088;SHT31;58747;50.674;4.616;2023-01-10T06:01:44;3.34;89.07
71088;SHT31;58747;50.674;4.616;2023-01-10T06:04:10;3.36;89.08
71088;SHT31;58747;50.674;4.616;2023-01-10T06:06:35;3.40;88.85
71088;SHT31;58747;50.674;4.616;2023-01-10T06:09:01;3.43;88.78
71088;SHT31;58747;50.674;4.616;2023-01-10T06:11:26;3.43;88.73
71088;SHT31;58747;50.674;4.616;2023-01-10T06:13:56;3.39;88.81
71088;SHT31;58747;50.674;4.616;2023-01-10T06:16:21;3.29;89.15
71088;SHT31;58747;50.674;4.616;2023-01-10T06:18:47;3.38;88.91
71088;SHT31;58747;50.674;4.616;2023-01-10T06:21:12;3.36;88.91
71088;SHT31;58747;50.674;4.616;2023-01-10T06:23:37;3.34;88.87
71088;SHT31;58747;50.674;4.616;2023-01-10T06:26:03;3.28;89.17
71088;SHT31;58747;50.674;4.616;2023-01-10T06:28:29;3.19;89.61
71088;SHT31;58747;50.674;4.616;2023-01-10T06:30:54;3.21;89.47
71088;SHT31;58747;50.674;4.616;2023-01-10T06:33:19;3.24;89.30
71088;SHT31;58747;50.674;4.616;2023-01-10T06:35:45;3.26;89.17
71088;SHT31;58747;50.674;4.616;2023-01-10T06:38:12;3.22;89.51
71088;SHT31;58747;50.674;4.616;2023-01-10T06:40:38;3.16;89.68
71088;SHT31;58747;50.674;4.616;2023-01-10T06:43:03;3.21;89.48
71088;SHT31;58747;50.674;4.616;2023-01-10T06:45:29;3.24;89.31
71088;SHT31;58747;50.674;4.616;2023-01-10T06:47:54;3.21;89.45
71088;SHT31;58747;50.674;4.616;2023-01-10T06:50:20;3.28;89.30
71088;SHT31;58747;50.674;4.616;2023-01-10T06:52:45;3.16;89.50
71088;SHT31;58747;50.674;4.616;2023-01-10T06:55:10;3.16;89.60
71088;SHT31;58747;50.674;4.616;2023-01-10T06:57:36;3.16;89.58
71088;SHT31;58747;50.674;4.616;2023-01-10T07:00:07;3.18;89.57
71088;SHT31;58747;50.674;4.616;2023-01-10T07:02:32;3.19;89.57
71088;SHT31;58747;50.674;4.616;2023-01-10T07:04:58;3.22;89.44
71088;SHT31;58747;50.674;4.616;2023-01-10T07:07:23;3.25;89.48
71088;SHT31;58747;50.674;4.616;2023-01-10T07:09:48;3.14;89.79
71088;SHT31;58747;50.674;4.616;2023-01-10T07:12:14;3.22;89.95
71088;SHT31;58747;50.674;4.616;2023-01-10T07:14:39;3.15;89.83
71088;SHT31;58747;50.674;4.616;2023-01-10T07:17:04;3.16;89.72
71088;SHT31;58747;50.674;4.616;2023-01-10T07:19:30;3.16;89.81
71088;SHT31;58747;50.674;4.616;2023-01-10T07:21:55;3.12;89.76
71088;SHT31;58747;50.674;4.616;2023-01-10T07:24:20;3.12;89.79
71088;SHT31;58747;50.674;4.616;2023-01-10T07:26:46;3.14;89.95
71088;SHT31;58747;50.674;4.616;2023-01-10T07:29:11;3.08;89.81
71088;SHT31;58747;50.674;4.616;2023-01-10T07:31:36;3.15;89.86
71088;SHT31;58747;50.674;4.616;2023-01-10T07:34:02;3.14;89.93
71088;SHT31;58747;50.674;4.616;2023-01-10T07:36:27;3.16;89.80
71088;SHT31;58747;50.674;4.616;2023-01-10T07:38:53;3.16;89.77
71088;SHT31;58747;50.674;4.616;2023-01-10T07:41:18;3.19;89.65
71088;SHT31;58747;50.674;4.616;2023-01-10T07:43:43;3.15;89.86
71088;SHT31;58747;50.674;4.616;2023-01-10T07:46:09;3.21;89.91
71088;SHT31;58747;50.674;4.616;2023-01-10T07:48:36;3.28;89.74
71088;SHT31;58747;50.674;4.616;2023-01-10T07:51:03;3.32;89.54
71088;SHT31;58747;50.674;4.616;2023-01-10T07:53:28;3.32;89.35
71088;SHT31;58747;50.674;4.616;2023-01-10T07:55:58;3.29;89.65
71088;SHT31;58747;50.674;4.616;2023-01-10T07:58:23;3.28;89.74
71088;SHT31;58747;50.674;4.616;2023-01-10T08:00:49;3.35;89.63
71088;SHT31;58747;50.674;4.616;2023-01-10T08:03:15;3.32;89.62
71088;SHT31;58747;50.674;4.616;2023-01-10T08:05:41;3.35;89.77
71088;SHT31;58747;50.674;4.616;2023-01-10T08:08:08;3.51;89.17
71088;SHT31;58747;50.674;4.616;2023-01-10T08:10:35;3.55;88.85
71088;SHT31;58747;50.674;4.616;2023-01-10T08:13:01;3.63;88.86
71088;SHT31;58747;50.674;4.616;2023-01-10T08:15:27;3.63;88.73
71088;SHT31;58747;50.674;4.616;2023-01-10T08:17:52;3.67;88.64
71088;SHT31;58747;50.674;4.616;2023-01-10T08:20:18;3.74;88.47
71088;SHT31;58747;50.674;4.616;2023-01-10T08:22:43;3.74;88.63
71088;SHT31;58747;50.674;4.616;2023-01-10T08:25:09;3.80;88.33
71088;SHT31;58747;50.674;4.616;2023-01-10T08:27:35;3.84;88.15
71088;SHT31;58747;50.674;4.616;2023-01-10T08:30:00;3.86;88.40
71088;SHT31;58747;50.674;4.616;2023-01-10T08:32:25;3.87;88.44
71088;SHT31;58747;50.674;4.616;2023-01-10T08:34:51;3.97;88.07
71088;SHT31;58747;50.674;4.616;2023-01-10T08:37:16;3.94;88.31
71088;SHT31;58747;50.674;4.616;2023-01-10T08:39:41;4.01;87.93
71088;SHT31;58747;50.674;4.616;2023-01-10T08:42:07;4.03;87.94
71088;SHT31;58747;50.674;4.616;2023-01-10T08:44:32;4.11;87.88
71088;SHT31;58747;50.674;4.616;2023-01-10T08:46:57;4.13;87.83
71088;SHT31;58747;50.674;4.616;2023-01-10T08:49:23;4.18;87.71
71088;SHT31;58747;50.674;4.616;2023-01-10T08:51:48;4.24;87.57
71088;SHT31;58747;50.674;4.616;2023-01-10T08:54:14;4.30;87.23
71088;SHT31;58747;50.674;4.616;2023-01-10T08:56:39;4.32;87.04
71088;SHT31;58747;50.674;4.616;2023-01-10T08:59:06;4.30;87.33
71088;SHT31;58747;50.674;4.616;2023-01-10T09:01:31;4.30;87.41
71088;SHT31;58747;50.674;4.616;2023-01-10T09:03:57;4.38;87.17
71088;SHT31;58747;50.674;4.616;2023-01-10T09:06:22;4.41;87.21
71088;SHT31;58747;50.674;4.616;2023-01-10T09:08:48;4.38;87.16
71088;SHT31;58747;50.674;4.616;2023-01-10T09:11:14;4.48;87.19
71088;SHT31;58747;50.674;4.616;2023-01-10T09:13:39;4.49;86.93
71088;SHT31;58747;50.674;4.616;2023-01-10T09:16:06;4.53;86.96
71088;SHT31;58747;50.674;4.616;2023-01-10T09:18:31;4.61;86.76
71088;SHT31;58747;50.674;4.616;2023-01-10T09:20:58;4.62;86.73
71088;SHT31;58747;50.674;4.616;2023-01-10T09:23:23;4.69;86.89
71088;SHT31;58747;50.674;4.616;2023-01-10T09:25:52;4.65;86.97
71088;SHT31;58747;50.674;4.616;2023-01-10T09:28:19;4.69;87.01
71088;SHT31;58747;50.674;4.616;2023-01-10T09:30:45;4.75;86.84
71088;SHT31;58747;50.674;4.616;2023-01-10T09:33:11;4.82;86.57
71088;SHT31;58747;50.674;4.616;2023-01-10T09:35:38;4.89;86.26
71088;SHT31;58747;50.674;4.616;2023-01-10T09:38:06;4.89;86.22
71088;SHT31;58747;50.674;4.616;2023-01-10T09:52:03;5.10;85.78
71088;SHT31;58747;50.674;4.616;2023-01-10T09:54:42;5.17;85.82
71088;SHT31;58747;50.674;4.616;2023-01-10T09:57:18;5.21;85.39
71088;SHT31;58747;50.674;4.616;2023-01-10T09:59:44;5.16;85.54
71088;SHT31;58747;50.674;4.616;2023-01-10T10:02:30;5.11;85.92
71088;SHT31;58747;50.674;4.616;2023-01-10T10:07:34;5.23;85.83
71088;SHT31;58747;50.674;4.616;2023-01-10T10:09:59;5.27;85.77
71088;SHT31;58747;50.674;4.616;2023-01-10T10:13:14;5.28;86.04
71088;SHT31;58747;50.674;4.616;2023-01-10T10:15:59;5.34;85.65
71088;SHT31;58747;50.674;4.616;2023-01-10T10:26:56;5.44;85.78
71088;SHT31;58747;50.674;4.616;2023-01-10T10:34:55;5.66;85.48
71088;SHT31;58747;50.674;4.616;2023-01-10T10:37:26;5.69;85.26
71088;SHT31;58747;50.674;4.616;2023-01-10T10:40:22;5.71;84.98
71088;SHT31;58747;50.674;4.616;2023-01-10T10:42:48;5.76;84.86
71088;SHT31;58747;50.674;4.616;2023-01-10T10:45:19;5.79;84.63
71088;SHT31;58747;50.674;4.616;2023-01-10T10:47:52;5.86;84.65
71088;SHT31;58747;50.674;4.616;2023-01-10T10:50:30;5.88;84.78
71088;SHT31;58747;50.674;4.616;2023-01-10T10:52:59;5.89;85.13
71088;SHT31;58747;50.674;4.616;2023-01-10T10:55:31;5.93;84.56
71088;SHT31;58747;50.674;4.616;2023-01-10T10:57:57;6.03;84.25
71088;SHT31;58747;50.674;4.616;2023-01-10T11:00:23;6.06;84.74
71088;SHT31;58747;50.674;4.616;2023-01-10T11:03:03;6.07;84.09
71088;SHT31;58747;50.674;4.616;2023-01-10T11:05:42;6.07;84.22
71088;SHT31;58747;50.674;4.616;2023-01-10T11:08:11;6.05;83.98
71088;SHT31;58747;50.674;4.616;2023-01-10T11:10:55;6.09;84.41
71088;SHT31;58747;50.674;4.616;2023-01-10T11:16:05;6.14;84.02
71088;SHT31;58747;50.674;4.616;2023-01-10T11:18:31;6.17;84.19
71088;SHT31;58747;50.674;4.616;2023-01-10T11:21:00;6.17;83.85
71088;SHT31;58747;50.674;4.616;2023-01-10T11:23:52;6.24;84.33
71088;SHT31;58747;50.674;4.616;2023-01-10T11:26:50;6.23;83.83
71088;SHT31;58747;50.674;4.616;2023-01-10T11:29:19;6.23;83.95
71088;SHT31;58747;50.674;4.616;2023-01-10T11:31:47;6.26;84.13
71088;SHT31;58747;50.674;4.616;2023-01-10T11:34:29;6.24;84.04
71088;SHT31;58747;50.674;4.616;2023-01-10T11:37:05;6.29;83.98
71088;SHT31;58747;50.674;4.616;2023-01-10T11:39:41;6.34;83.29
71088;SHT31;58747;50.674;4.616;2023-01-10T11:44:47;6.38;83.64
71088;SHT31;58747;50.674;4.616;2023-01-10T11:47:13;6.45;83.07
71088;SHT31;58747;50.674;4.616;2023-01-10T11:49:41;6.51;82.93
71088;SHT31;58747;50.674;4.616;2023-01-10T11:52:19;6.54;82.67
71088;SHT31;58747;50.674;4.616;2023-01-10T11:54:46;6.58;82.39
71088;SHT31;58747;50.674;4.616;2023-01-10T11:57:17;6.58;82.28
71088;SHT31;58747;50.674;4.616;2023-01-10T11:59:54;6.61;83.00
71088;SHT31;58747;50.674;4.616;2023-01-10T12:02:23;6.71;82.23
71088;SHT31;58747;50.674;4.616;2023-01-10T12:04:51;6.71;82.28
71088;SHT31;58747;50.674;4.616;2023-01-10T12:07:17;6.79;82.35
71088;SHT31;58747;50.674;4.616;2023-01-10T12:10:00;6.84;81.90
71088;SHT31;58747;50.674;4.616;2023-01-10T12:12:28;6.87;82.38
71088;SHT31;58747;50.674;4.616;2023-01-10T12:14:56;6.85;82.19
71088;SHT31;58747;50.674;4.616;2023-01-10T12:17:30;6.81;82.60
71088;SHT31;58747;50.674;4.616;2023-01-10T12:19:58;6.85;82.61
71088;SHT31;58747;50.674;4.616;2023-01-10T12:22:37;6.79;82.89
71088;SHT31;58747;50.674;4.616;2023-01-10T12:25:13;6.78;82.84
71088;SHT31;58747;50.674;4.616;2023-01-10T12:27:39;6.77;83.42
71088;SHT31;58747;50.674;4.616;2023-01-10T12:30:17;6.72;83.38
71088;SHT31;58747;50.674;4.616;2023-01-10T12:32:47;6.67;83.67
71088;SHT31;58747;50.674;4.616;2023-01-10T12:35:24;6.67;84.04
71088;SHT31;58747;50.674;4.616;2023-01-10T12:38:09;6.71;83.68
71088;SHT31;58747;50.674;4.616;2023-01-10T12:40:44;6.81;84.59
71088;SHT31;58747;50.674;4.616;2023-01-10T12:46:14;7.00;83.76
71088;SHT31;58747;50.674;4.616;2023-01-10T12:48:52;6.75;84.08
71088;SHT31;58747;50.674;4.616;2023-01-10T12:51:21;6.57;84.61
71088;SHT31;58747;50.674;4.616;2023-01-10T12:53:53;6.55;84.86
71088;SHT31;58747;50.674;4.616;2023-01-10T12:56:20;6.48;84.92
71088;SHT31;58747;50.674;4.616;2023-01-10T12:59:04;6.40;85.69
71088;SHT31;58747;50.674;4.616;2023-01-10T13:01:34;6.48;86.53
71088;SHT31;58747;50.674;4.616;2023-01-10T13:04:12;6.45;85.62
71088;SHT31;58747;50.674;4.616;2023-01-10T13:06:41;6.41;85.81
71088;SHT31;58747;50.674;4.616;2023-01-10T13:09:28;6.36;86.30
71088;SHT31;58747;50.674;4.616;2023-01-10T13:14:36;6.16;86.86
71088;SHT31;58747;50.674;4.616;2023-01-10T13:22:41;6.07;86.86
71088;SHT31;58747;50.674;4.616;2023-01-10T13:25:27;6.00;88.04
71088;SHT31;58747;50.674;4.616;2023-01-10T13:30:40;6.03;87.22
71088;SHT31;58747;50.674;4.616;2023-01-10T13:33:21;5.99;87.56
71088;SHT31;58747;50.674;4.616;2023-01-10T13:35:47;5.98;88.23
71088;SHT31;58747;50.674;4.616;2023-01-10T13:38:26;6.03;88.32
71088;SHT31;58747;50.674;4.616;2023-01-10T13:41:04;6.05;88.08
71088;SHT31;58747;50.674;4.616;2023-01-10T13:48:39;5.93;88.68
71088;SHT31;58747;50.674;4.616;2023-01-10T13:51:13;5.89;88.89
71088;SHT31;58747;50.674;4.616;2023-01-10T13:53:43;5.86;88.59
71088;SHT31;58747;50.674;4.616;2023-01-10T13:56:39;5.85;88.77
71088;SHT31;58747;50.674;4.616;2023-01-10T13:59:13;5.82;88.81
71088;SHT31;58747;50.674;4.616;2023-01-10T14:02:25;5.80;88.69
71088;SHT31;58747;50.674;4.616;2023-01-10T14:07:49;5.69;89.66
71088;SHT31;58747;50.674;4.616;2023-01-10T14:15:28;5.68;90.93
71088;SHT31;58747;50.674;4.616;2023-01-10T14:18:02;5.69;90.84
71088;SHT31;58747;50.674;4.616;2023-01-10T14:20:29;5.62;90.96
71088;SHT31;58747;50.674;4.616;2023-01-10T14:23:07;5.61;90.93
71088;SHT31;58747;50.674;4.616;2023-01-10T14:25:41;5.66;91.04
71088;SHT31;58747;50.674;4.616;2023-01-10T14:28:24;5.62;90.53
71088;SHT31;58747;50.674;4.616;2023-01-10T14:33:26;5.55;90.62
71088;SHT31;58747;50.674;4.616;2023-01-10T14:35:55;5.58;90.63
71088;SHT31;58747;50.674;4.616;2023-01-10T14:38:27;5.63;90.26
71088;SHT31;58747;50.674;4.616;2023-01-10T14:41:04;5.66;90.08
71088;SHT31;58747;50.674;4.616;2023-01-10T14:43:44;5.61;90.39
71088;SHT31;58747;50.674;4.616;2023-01-10T14:46:19;5.63;90.45
71088;SHT31;58747;50.674;4.616;2023-01-10T14:48:48;5.65;90.45
71088;SHT31;58747;50.674;4.616;2023-01-10T14:53:43;5.61;90.77
71088;SHT31;58747;50.674;4.616;2023-01-10T14:56:23;5.69;90.65
71088;SHT31;58747;50.674;4.616;2023-01-10T14:58:49;5.73;90.19
71088;SHT31;58747;50.674;4.616;2023-01-10T15:01:26;5.72;90.07
71088;SHT31;58747;50.674;4.616;2023-01-10T15:03:53;5.69;90.33
71088;SHT31;58747;50.674;4.616;2023-01-10T15:06:19;5.76;90.15
71088;SHT31;58747;50.674;4.616;2023-01-10T15:08:45;5.73;90.15
71088;SHT31;58747;50.674;4.616;2023-01-10T15:11:19;5.75;90.43
71088;SHT31;58747;50.674;4.616;2023-01-10T15:13:52;5.75;90.79
71088;SHT31;58747;50.674;4.616;2023-01-10T15:16:22;5.79;90.36
71088;SHT31;58747;50.674;4.616;2023-01-10T15:18:49;5.80;90.53
71088;SHT31;58747;50.674;4.616;2023-01-10T15:21:16;5.83;90.43
71088;SHT31;58747;50.674;4.616;2023-01-10T15:23:44;5.83;90.16
71088;SHT31;58747;50.674;4.616;2023-01-10T15:26:29;5.82;90.65
71088;SHT31;58747;50.674;4.616;2023-01-10T15:29:12;5.88;90.75
71088;SHT31;58747;50.674;4.616;2023-01-10T15:31:39;5.86;91.01
71088;SHT31;58747;50.674;4.616;2023-01-10T15:34:14;5.90;90.76
71088;SHT31;58747;50.674;4.616;2023-01-10T15:36:59;5.86;90.82
71088;SHT31;58747;50.674;4.616;2023-01-10T15:39:34;5.86;91.08
71088;SHT31;58747;50.674;4.616;2023-01-10T15:42:04;5.85;91.16
71088;SHT31;58747;50.674;4.616;2023-01-10T15:47:04;5.92;91.21
71088;SHT31;58747;50.674;4.616;2023-01-10T15:49:30;5.90;91.09
71088;SHT31;58747;50.674;4.616;2023-01-10T15:51:55;5.93;91.04
71088;SHT31;58747;50.674;4.616;2023-01-10T15:56:56;5.88;91.12
71088;SHT31;58747;50.674;4.616;2023-01-10T15:59:30;5.85;91.35
71088;SHT31;58747;50.674;4.616;2023-01-10T16:02:49;5.90;91.23
71088;SHT31;58747;50.674;4.616;2023-01-10T16:05:14;5.92;91.04
71088;SHT31;58747;50.674;4.616;2023-01-10T16:07:43;5.95;91.11
71088;SHT31;58747;50.674;4.616;2023-01-10T16:10:45;5.95;91.01
71088;SHT31;58747;50.674;4.616;2023-01-10T16:13:08;5.93;91.15
71088;SHT31;58747;50.674;4.616;2023-01-10T16:15:54;5.90;91.32
71088;SHT31;58747;50.674;4.616;2023-01-10T16:18:19;5.93;91.33
71088;SHT31;58747;50.674;4.616;2023-01-10T16:20:46;5.98;91.17
71088;SHT31;58747;50.674;4.616;2023-01-10T16:23:17;5.96;91.09
71088;SHT31;58747;50.674;4.616;2023-01-10T16:25:45;5.92;90.85
71088;SHT31;58747;50.674;4.616;2023-01-10T16:28:13;5.99;90.98
71088;SHT31;58747;50.674;4.616;2023-01-10T16:30:39;6.06;90.75
71088;SHT31;58747;50.674;4.616;2023-01-10T16:33:13;6.03;90.68
71088;SHT31;58747;50.674;4.616;2023-01-10T16:35:45;6.10;90.17
71088;SHT31;58747;50.674;4.616;2023-01-10T16:38:11;6.13;90.42
71088;SHT31;58747;50.674;4.616;2023-01-10T16:40:39;6.19;90.15
71088;SHT31;58747;50.674;4.616;2023-01-10T16:43:05;6.23;89.93
71088;SHT31;58747;50.674;4.616;2023-01-10T16:45:55;6.29;89.80
71088;SHT31;58747;50.674;4.616;2023-01-10T16:48:25;6.33;89.70
71088;SHT31;58747;50.674;4.616;2023-01-10T16:50:51;6.36;89.59
71088;SHT31;58747;50.674;4.616;2023-01-10T16:53:18;6.38;89.24
71088;SHT31;58747;50.674;4.616;2023-01-10T16:55:49;6.45;89.22
71088;SHT31;58747;50.674;4.616;2023-01-10T16:58:16;6.48;89.13
71088;SHT31;58747;50.674;4.616;2023-01-10T17:00:43;6.52;88.91
71088;SHT31;58747;50.674;4.616;2023-01-10T17:03:19;6.58;88.89
71088;SHT31;58747;50.674;4.616;2023-01-10T17:05:45;6.61;88.71
71088;SHT31;58747;50.674;4.616;2023-01-10T17:08:16;6.65;88.64
71088;SHT31;58747;50.674;4.616;2023-01-10T17:10:43;6.71;88.61
71088;SHT31;58747;50.674;4.616;2023-01-10T17:13:10;6.74;88.29
71088;SHT31;58747;50.674;4.616;2023-01-10T17:15:36;6.77;88.49
71088;SHT31;58747;50.674;4.616;2023-01-10T17:18:02;6.78;88.45
71088;SHT31;58747;50.674;4.616;2023-01-10T17:20:27;6.74;88.80
71088;SHT31;58747;50.674;4.616;2023-01-10T17:22:55;6.77;88.71
71088;SHT31;58747;50.674;4.616;2023-01-10T17:25:20;6.82;88.78
71088;SHT31;58747;50.674;4.616;2023-01-10T17:27:46;6.89;88.53
71088;SHT31;58747;50.674;4.616;2023-01-10T17:30:12;6.91;88.58
71088;SHT31;58747;50.674;4.616;2023-01-10T17:32:37;6.88;88.81
71088;SHT31;58747;50.674;4.616;2023-01-10T17:35:04;6.91;88.85
71088;SHT31;58747;50.674;4.616;2023-01-10T17:37:29;7.02;88.33
71088;SHT31;58747;50.674;4.616;2023-01-10T17:39:54;6.98;88.76
71088;SHT31;58747;50.674;4.616;2023-01-10T17:42:20;6.98;88.80
71088;SHT31;58747;50.674;4.616;2023-01-10T17:44:47;6.99;89.06
71088;SHT31;58747;50.674;4.616;2023-01-10T17:47:12;7.00;89.01
71088;SHT31;58747;50.674;4.616;2023-01-10T17:49:38;7.05;89.06